createdAt,value
2022-09-18T00:01:12.249Z,7.47
2022-09-18T00:03:39.749Z,5.73
2022-09-18T00:06:08.872Z,4.23
2022-09-18T00:08:35.545Z,3.93
2022-09-18T00:11:05.241Z,4.07
2022-09-18T00:13:32.360Z,4.43
2022-09-18T00:15:59.035Z,4.77
2022-09-18T00:18:26.853Z,4.00
2022-09-18T00:20:53.427Z,5.43
2022-09-18T00:23:20.070Z,4.63
2022-09-18T00:25:46.683Z,4.63
2022-09-18T00:28:13.353Z,6.73
2022-09-18T00:30:39.983Z,7.77
2022-09-18T00:33:49.161Z,5.10
2022-09-18T00:36:26.665Z,4.73
2022-09-18T00:38:54.263Z,4.03
2022-09-18T00:41:24.356Z,4.37
2022-09-18T00:43:52.661Z,6.43
2022-09-18T00:46:28.301Z,4.23
2022-09-18T00:49:13.196Z,4.27
2022-09-18T00:51:41.380Z,6.13
2022-09-18T00:54:27.780Z,6.77
2022-09-18T00:56:59.487Z,3.50
2022-09-18T00:59:29.825Z,8.03
2022-09-18T01:06:06.526Z,3.97
2022-09-18T01:08:44.231Z,6.20
2022-09-18T01:11:23.901Z,5.30
2022-09-18T01:14:13.742Z,2.23
2022-09-18T01:16:46.366Z,4.60
2022-09-18T01:19:54.887Z,5.00
2022-09-18T01:22:30.571Z,5.67
2022-09-18T01:25:14.732Z,6.17
2022-09-18T01:27:41.220Z,6.23
2022-09-18T01:30:09.728Z,6.10
2022-09-18T01:32:42.365Z,4.63
2022-09-18T01:35:39.900Z,6.57
2022-09-18T01:38:07.910Z,4.47
2022-09-18T01:40:39.036Z,4.63
2022-09-18T01:43:08.823Z,4.87
2022-09-18T01:45:39.438Z,6.10
2022-09-18T01:48:07.943Z,4.33
2022-09-18T01:50:39.961Z,4.93
2022-09-18T01:53:14.188Z,3.53
2022-09-18T01:55:41.469Z,4.57
2022-09-18T01:58:12.428Z,3.93
2022-09-18T02:00:42.133Z,6.57
2022-09-18T02:03:13.515Z,3.30
2022-09-18T02:05:44.472Z,4.10
2022-09-18T02:08:22.256Z,2.53
2022-09-18T02:10:52.944Z,5.17
2022-09-18T02:13:23.984Z,6.40
2022-09-18T02:15:52.055Z,3.57
2022-09-18T02:18:22.521Z,4.03
2022-09-18T02:20:49.383Z,1.90
2022-09-18T02:23:16.571Z,3.67
2022-09-18T02:25:51.163Z,9.53
2022-09-18T02:28:20.718Z,3.80
2022-09-18T02:30:47.600Z,4.67
2022-09-18T02:33:43.763Z,7.43
2022-09-18T02:36:25.212Z,4.00
2022-09-18T02:39:24.469Z,4.17
2022-09-18T02:42:03.070Z,4.37
2022-09-18T02:44:38.753Z,7.53
2022-09-18T02:47:16.146Z,2.90
2022-09-18T02:50:14.812Z,4.87
2022-09-18T02:52:56.491Z,6.87
2022-09-18T02:55:41.989Z,6.37
2022-09-18T02:58:48.937Z,5.17
2022-09-18T03:01:17.365Z,4.77
2022-09-18T03:03:44.011Z,13.03
2022-09-18T03:06:10.887Z,5.87
2022-09-18T03:08:37.521Z,5.67
2022-09-18T03:11:04.595Z,6.40
2022-09-18T03:13:31.356Z,6.10
2022-09-18T03:15:58.109Z,4.43
2022-09-18T03:18:24.980Z,3.07
2022-09-18T03:20:51.713Z,6.47
2022-09-18T03:23:49.268Z,3.37
2022-09-18T03:26:44.640Z,8.93
2022-09-18T03:29:12.205Z,6.03
2022-09-18T03:31:39.059Z,5.90
2022-09-18T03:34:06.112Z,7.13
2022-09-18T03:36:32.958Z,7.17
2022-09-18T03:39:02.864Z,4.93
2022-09-18T03:41:29.478Z,3.37
2022-09-18T03:43:56.096Z,4.17
2022-09-18T03:46:23.708Z,2.43
2022-09-18T03:48:51.352Z,3.03
2022-09-18T03:51:19.239Z,8.33
2022-09-18T03:53:47.007Z,7.80
2022-09-18T03:56:14.369Z,10.77
2022-09-18T03:58:41.743Z,5.57
2022-09-18T04:01:09.078Z,4.97
2022-09-18T04:03:35.701Z,4.10
2022-09-18T04:06:02.860Z,4.13
2022-09-18T04:08:29.719Z,6.00
2022-09-18T04:10:56.394Z,3.23
2022-09-18T04:13:23.056Z,9.33
2022-09-18T04:15:50.536Z,5.77
2022-09-18T04:18:18.290Z,3.63
2022-09-18T04:20:46.147Z,5.93
2022-09-18T04:23:14.505Z,6.63
2022-09-18T04:25:44.287Z,3.67
2022-09-18T04:28:11.467Z,5.27
2022-09-18T04:30:38.427Z,4.90
2022-09-18T04:33:05.370Z,13.47
2022-09-18T04:35:31.982Z,25.03
2022-09-18T04:37:58.613Z,21.63
2022-09-18T04:40:25.235Z,22.10
2022-09-18T04:42:51.880Z,28.73
2022-09-18T04:45:18.468Z,25.27
2022-09-18T04:47:48.448Z,30.57
2022-09-18T04:50:15.475Z,60.37
2022-09-18T04:52:42.186Z,62.53
2022-09-18T04:55:08.903Z,36.40
2022-09-18T04:57:35.471Z,13.47
2022-09-18T05:00:02.459Z,9.37
2022-09-18T05:02:29.087Z,4.90
2022-09-18T05:04:55.695Z,6.20
2022-09-18T05:07:22.275Z,9.73
2022-09-18T05:09:48.944Z,4.80
2022-09-18T05:12:15.572Z,12.27
2022-09-18T05:14:42.145Z,32.47
2022-09-18T05:17:08.872Z,43.77
2022-09-18T05:19:35.567Z,46.63
2022-09-18T05:22:02.142Z,39.47
2022-09-18T05:24:28.788Z,34.53
2022-09-18T05:26:55.398Z,31.53
2022-09-18T05:29:21.981Z,23.37
2022-09-18T05:31:48.662Z,14.87
2022-09-18T05:34:15.402Z,13.67
2022-09-18T05:36:42.052Z,7.73
2022-09-18T05:39:08.711Z,10.23
2022-09-18T05:41:35.525Z,11.83
2022-09-18T05:44:02.414Z,10.77
2022-09-18T05:46:29.070Z,11.07
2022-09-18T05:48:55.763Z,13.03
2022-09-18T05:51:22.356Z,8.23
2022-09-18T05:53:49.043Z,12.23
2022-09-18T05:56:16.500Z,11.97
2022-09-18T05:58:43.445Z,12.17
2022-09-18T06:01:10.443Z,9.53
2022-09-18T06:03:37.064Z,13.63
2022-09-18T06:06:03.873Z,23.60
2022-09-18T06:08:30.536Z,13.50
2022-09-18T06:11:00.988Z,12.30
2022-09-18T06:13:27.567Z,9.13
2022-09-18T06:15:54.540Z,9.23
2022-09-18T06:18:21.185Z,7.57
2022-09-18T06:20:56.092Z,7.23
2022-09-18T06:23:24.221Z,7.30
2022-09-18T06:26:04.804Z,6.67
2022-09-18T06:28:32.504Z,5.37
2022-09-18T06:31:00.258Z,7.03
2022-09-18T06:33:29.306Z,5.77
2022-09-18T06:35:56.163Z,4.23
2022-09-18T06:38:22.737Z,6.67
2022-09-18T06:40:53.392Z,5.30
2022-09-18T06:43:20.666Z,5.23
2022-09-18T06:45:51.908Z,7.00
2022-09-18T06:48:18.531Z,6.17
2022-09-18T06:50:51.194Z,3.47
2022-09-18T06:53:17.779Z,3.90
2022-09-18T06:55:44.365Z,6.00
2022-09-18T06:58:10.981Z,3.83
2022-09-18T07:00:37.597Z,3.17
2022-09-18T07:03:04.245Z,4.50
2022-09-18T07:05:32.452Z,3.77
2022-09-18T07:07:59.699Z,3.20
2022-09-18T07:10:26.764Z,5.47
2022-09-18T07:13:00.674Z,4.77
2022-09-18T07:15:27.731Z,4.43
2022-09-18T07:17:58.827Z,24.83
2022-09-18T07:20:26.115Z,33.47
2022-09-18T07:22:54.252Z,21.97
2022-09-18T07:25:20.973Z,18.30
2022-09-18T07:27:47.967Z,2.40
2022-09-18T07:30:14.938Z,4.10
2022-09-18T07:32:41.651Z,3.00
2022-09-18T07:35:08.930Z,4.57
2022-09-18T07:37:35.549Z,3.07
2022-09-18T07:40:02.407Z,3.07
2022-09-18T07:42:29.053Z,7.13
2022-09-18T07:44:56.127Z,9.27
2022-09-18T07:47:24.718Z,3.00
2022-09-18T07:49:51.522Z,6.23
2022-09-18T07:52:18.723Z,9.77
2022-09-18T07:54:45.335Z,10.30
2022-09-18T07:57:11.984Z,8.93
2022-09-18T07:59:38.607Z,12.53
2022-09-18T08:02:05.914Z,5.17
2022-09-18T08:04:32.597Z,10.00
2022-09-18T08:07:03.931Z,9.17
2022-09-18T08:09:30.602Z,3.93
2022-09-18T08:11:57.498Z,7.57
2022-09-18T08:14:28.608Z,4.00
2022-09-18T08:16:55.892Z,5.57
2022-09-18T08:19:28.594Z,5.37
2022-09-18T08:21:55.237Z,6.23
2022-09-18T08:24:21.878Z,4.87
2022-09-18T08:26:48.477Z,8.60
2022-09-18T08:29:19.391Z,5.13
2022-09-18T08:31:46.976Z,4.03
2022-09-18T08:34:14.116Z,4.93
2022-09-18T08:36:40.909Z,5.20
2022-09-18T08:39:07.849Z,5.30
2022-09-18T08:41:56.268Z,4.07
2022-09-18T08:44:26.211Z,10.93
2022-09-18T08:47:44.145Z,9.73
2022-09-18T08:50:38.525Z,7.87
2022-09-18T08:53:17.624Z,5.37
2022-09-18T08:55:47.641Z,7.23
2022-09-18T08:58:28.387Z,10.50
2022-09-18T09:01:02.016Z,11.10
2022-09-18T09:03:57.709Z,11.80
2022-09-18T09:06:49.335Z,7.13
2022-09-18T09:09:54.940Z,10.73
2022-09-18T09:12:34.712Z,13.67
2022-09-18T09:15:04.324Z,17.20
2022-09-18T09:17:42.458Z,12.10
2022-09-18T09:20:21.451Z,13.50
2022-09-18T09:22:55.755Z,14.37
2022-09-18T09:25:31.850Z,15.07
2022-09-18T09:28:14.487Z,15.87
2022-09-18T09:30:44.967Z,28.10
2022-09-18T09:33:35.029Z,41.13
2022-09-18T09:36:08.696Z,12.47
2022-09-18T09:38:59.330Z,17.90
2022-09-18T09:41:37.919Z,12.53
2022-09-18T09:44:13.575Z,16.70
2022-09-18T09:47:03.144Z,23.73
2022-09-18T09:49:40.460Z,26.03
2022-09-18T09:52:18.199Z,16.53
2022-09-18T09:54:45.065Z,25.13
2022-09-18T09:57:36.711Z,13.40
2022-09-18T10:00:12.841Z,14.10
2022-09-18T10:02:55.894Z,15.47
2022-09-18T10:05:32.488Z,10.23
2022-09-18T10:08:06.361Z,16.30
2022-09-18T10:10:52.431Z,15.03
2022-09-18T10:13:22.042Z,4.17
2022-09-18T10:15:51.221Z,7.13
2022-09-18T10:18:25.865Z,2.87
2022-09-18T10:20:56.644Z,4.70
2022-09-18T10:23:29.689Z,2.57
2022-09-18T10:26:02.125Z,3.37
2022-09-18T10:28:29.798Z,6.37
2022-09-18T10:31:10.800Z,2.20
2022-09-18T10:33:43.115Z,2.03
2022-09-18T10:36:20.143Z,3.53
2022-09-18T10:38:47.587Z,5.47
2022-09-18T10:41:28.362Z,2.60
2022-09-18T10:44:01.240Z,2.80
2022-09-18T10:46:30.574Z,4.73
2022-09-18T10:48:58.966Z,1.70
2022-09-18T10:51:26.872Z,4.63
2022-09-18T10:54:08.548Z,3.70
2022-09-18T10:56:35.165Z,1.73
2022-09-18T10:59:28.588Z,3.00
2022-09-18T11:01:57.334Z,1.90
2022-09-18T11:04:23.940Z,2.17
2022-09-18T11:06:50.745Z,2.13
2022-09-18T11:09:20.427Z,2.57
2022-09-18T11:11:51.588Z,1.37
2022-09-18T11:14:22.461Z,1.77
2022-09-18T11:16:51.658Z,3.70
2022-09-18T11:19:34.021Z,2.23
2022-09-18T11:22:06.850Z,2.80
2022-09-18T11:24:35.851Z,1.50
2022-09-18T11:27:12.503Z,2.83
2022-09-18T11:29:39.936Z,3.00
2022-09-18T11:32:17.400Z,1.97
2022-09-18T11:34:50.131Z,1.00
2022-09-18T11:37:30.503Z,1.73
2022-09-18T11:40:05.234Z,2.30
2022-09-18T11:42:34.142Z,3.33
2022-09-18T11:45:25.263Z,1.20
2022-09-18T11:48:02.803Z,1.73
2022-09-18T11:50:31.470Z,3.33
2022-09-18T11:53:10.512Z,2.60
2022-09-18T11:55:58.274Z,2.53
2022-09-18T11:58:28.723Z,1.00
2022-09-18T12:01:24.696Z,1.20
2022-09-18T12:04:24.636Z,2.27
2022-09-18T12:07:13.164Z,4.23
2022-09-18T12:09:50.470Z,3.07
2022-09-18T12:12:24.297Z,1.80
2022-09-18T12:15:04.126Z,1.03
2022-09-18T12:17:36.715Z,3.03
2022-09-18T12:20:11.975Z,1.00
2022-09-18T12:22:46.256Z,4.43
2022-09-18T12:25:14.781Z,2.40
2022-09-18T12:28:16.799Z,3.23
2022-09-18T12:30:59.140Z,1.73
2022-09-18T12:33:37.261Z,5.43
2022-09-18T12:36:28.518Z,18.43
2022-09-18T12:39:12.803Z,8.57
2022-09-18T12:41:42.623Z,5.73
2022-09-18T12:44:46.578Z,6.70
2022-09-18T12:47:46.693Z,5.50
2022-09-18T12:50:48.564Z,13.57
2022-09-18T12:53:30.280Z,19.27
2022-09-18T12:56:12.984Z,6.37
2022-09-18T12:59:07.516Z,9.47
2022-09-18T13:01:48.595Z,2.00
2022-09-18T13:04:39.694Z,3.23
2022-09-18T13:07:50.762Z,3.20
2022-09-18T13:10:25.987Z,2.93
2022-09-18T13:13:04.444Z,2.43
2022-09-18T13:15:54.950Z,2.70
2022-09-18T13:18:49.796Z,2.03
2022-09-18T13:21:36.039Z,3.30
2022-09-18T13:24:03.507Z,3.07
2022-09-18T13:26:32.420Z,1.63
2022-09-18T13:28:59.342Z,2.10
2022-09-18T13:31:33.831Z,2.67
2022-09-18T13:34:02.589Z,1.60
2022-09-18T13:36:38.331Z,3.23
2022-09-18T13:39:18.440Z,2.40
2022-09-18T13:41:47.705Z,2.70
2022-09-18T13:44:29.350Z,2.90
2022-09-18T13:46:58.283Z,4.83
2022-09-18T13:49:29.099Z,5.83
2022-09-18T13:51:56.449Z,3.43
2022-09-18T13:54:28.564Z,4.97
2022-09-18T13:57:10.705Z,5.13
2022-09-18T14:00:01.252Z,3.77
2022-09-18T14:02:36.376Z,2.50
2022-09-18T14:05:24.622Z,6.07
2022-09-18T14:08:01.139Z,2.40
2022-09-18T14:10:31.023Z,2.03
2022-09-18T14:13:21.400Z,2.83
2022-09-18T14:16:06.376Z,3.00
2022-09-18T14:18:32.975Z,2.83
2022-09-18T14:21:20.019Z,4.90
2022-09-18T14:23:46.603Z,4.37
2022-09-18T14:26:28.471Z,4.17
2022-09-18T14:28:56.340Z,3.10
2022-09-18T14:31:31.964Z,2.23
2022-09-18T14:34:04.041Z,2.17
2022-09-18T14:36:59.353Z,2.50
2022-09-18T14:39:36.485Z,3.03
2022-09-18T14:42:06.244Z,3.33
2022-09-18T14:44:34.085Z,4.40
2022-09-18T14:47:03.458Z,4.90
2022-09-18T14:49:42.101Z,4.17
2022-09-18T14:52:23.297Z,4.67
2022-09-18T14:54:52.258Z,4.17
2022-09-18T14:57:22.247Z,6.13
2022-09-18T14:59:53.903Z,2.07
2022-09-18T15:02:34.903Z,4.33
2022-09-18T15:05:22.583Z,3.67
2022-09-18T15:07:53.631Z,3.07
2022-09-18T15:10:20.758Z,3.23
2022-09-18T15:12:47.539Z,2.03
2022-09-18T15:15:38.348Z,2.93
2022-09-18T15:18:27.610Z,4.33
2022-09-18T15:20:56.155Z,1.77
2022-09-18T15:23:38.430Z,1.17
2022-09-18T15:26:08.796Z,1.93
2022-09-18T15:28:36.772Z,3.40
2022-09-18T15:31:09.775Z,3.43
2022-09-18T15:33:41.388Z,1.53
2022-09-18T15:36:27.013Z,1.40
2022-09-18T15:38:54.965Z,1.80
2022-09-18T15:41:31.423Z,2.13
2022-09-18T15:43:58.062Z,1.93
2022-09-18T15:46:30.219Z,1.17
2022-09-18T15:49:03.682Z,2.00
2022-09-18T15:51:32.704Z,2.50
2022-09-18T15:54:12.837Z,1.77
2022-09-18T15:56:50.973Z,1.27
2022-09-18T15:59:36.959Z,1.63
2022-09-18T16:02:19.617Z,1.27
2022-09-18T16:04:46.358Z,1.73
2022-09-18T16:07:23.770Z,2.97
2022-09-18T16:09:51.787Z,3.13
2022-09-18T16:12:36.242Z,2.50
2022-09-18T16:15:23.248Z,4.07
2022-09-18T16:17:56.999Z,2.30
2022-09-18T16:20:29.196Z,1.60
2022-09-18T16:23:15.419Z,5.13
2022-09-18T16:25:43.703Z,4.20
2022-09-18T16:28:24.097Z,4.97
2022-09-18T16:30:50.972Z,4.30
2022-09-18T16:33:21.150Z,4.60
2022-09-18T16:35:55.115Z,4.00
2022-09-18T16:38:44.778Z,5.07
2022-09-18T16:41:09.957Z,3.23
2022-09-18T16:43:36.885Z,2.97
2022-09-18T16:46:03.548Z,5.43
2022-09-18T16:48:30.371Z,3.40
2022-09-18T16:50:57.043Z,6.63
2022-09-18T16:53:23.698Z,5.17
2022-09-18T16:55:52.490Z,6.40
2022-09-18T16:58:23.542Z,5.83
2022-09-18T17:00:50.517Z,5.77
2022-09-18T17:03:18.336Z,5.30
2022-09-18T17:05:45.152Z,6.13
2022-09-18T17:08:11.779Z,3.70
2022-09-18T17:10:40.268Z,4.90
2022-09-18T17:13:09.871Z,2.80
2022-09-18T17:15:36.522Z,2.77
2022-09-18T17:18:03.474Z,1.63
2022-09-18T17:20:30.199Z,0.97
2022-09-18T17:22:57.023Z,1.23
2022-09-18T17:25:23.697Z,1.77
2022-09-18T17:27:53.921Z,1.40
2022-09-18T17:30:23.868Z,1.33
2022-09-18T17:32:50.595Z,1.23
2022-09-18T17:35:17.618Z,2.20
2022-09-18T17:37:44.319Z,1.77
2022-09-18T17:40:11.197Z,0.90
2022-09-18T17:42:38.655Z,1.67
2022-09-18T17:45:06.288Z,0.80
2022-09-18T17:47:34.353Z,1.30
2022-09-18T17:50:01.839Z,1.83
2022-09-18T17:52:31.087Z,1.90
2022-09-18T17:54:57.885Z,2.70
2022-09-18T17:57:25.750Z,3.20
2022-09-18T17:59:52.564Z,2.40
2022-09-18T18:02:22.030Z,1.77
2022-09-18T18:04:48.734Z,3.73
2022-09-18T18:07:15.504Z,4.80
2022-09-18T18:09:42.311Z,4.37
2022-09-18T18:12:08.922Z,4.00
2022-09-18T18:14:38.397Z,8.40
2022-09-18T18:17:08.190Z,5.80
2022-09-18T18:19:35.178Z,3.27
2022-09-18T18:22:01.848Z,10.23
2022-09-18T18:24:29.933Z,69.17
2022-09-18T18:26:57.850Z,56.50
2022-09-18T18:29:25.092Z,36.73
2022-09-18T18:31:52.319Z,27.83
2022-09-18T18:34:25.322Z,22.83
2022-09-18T18:37:09.875Z,15.27
2022-09-18T18:39:36.617Z,18.03
2022-09-18T18:42:03.324Z,10.10
2022-09-18T18:44:30.046Z,11.40
2022-09-18T18:46:56.768Z,13.33
2022-09-18T18:49:24.711Z,13.37
2022-09-18T18:51:51.936Z,7.93
2022-09-18T18:54:20.691Z,4.27
2022-09-18T18:56:48.164Z,2.40
2022-09-18T18:59:17.062Z,2.87
2022-09-18T19:01:43.927Z,1.80
2022-09-18T19:04:12.884Z,1.67
2022-09-18T19:06:41.986Z,2.73
2022-09-18T19:09:20.316Z,1.50
2022-09-18T19:11:49.097Z,2.37
2022-09-18T19:14:20.651Z,4.40
2022-09-18T19:16:51.531Z,3.73
2022-09-18T19:19:19.881Z,3.13
2022-09-18T19:21:47.405Z,3.53
2022-09-18T19:24:14.473Z,3.50
2022-09-18T19:26:42.295Z,4.17
2022-09-18T19:29:12.532Z,4.80
2022-09-18T19:31:41.130Z,6.13
2022-09-18T19:34:09.345Z,10.40
2022-09-18T19:36:36.650Z,5.57
2022-09-18T19:39:05.383Z,3.30
2022-09-18T19:41:42.927Z,3.90
2022-09-18T19:44:31.932Z,3.23
2022-09-18T19:47:01.882Z,2.00
2022-09-18T19:49:35.476Z,3.40
2022-09-18T19:52:03.255Z,3.83
2022-09-18T19:54:31.331Z,4.03
2022-09-18T19:56:59.264Z,3.10
2022-09-18T19:59:25.897Z,2.70
2022-09-18T20:01:53.639Z,2.70
2022-09-18T20:04:20.279Z,3.97
2022-09-18T20:06:46.907Z,1.60
2022-09-18T20:09:13.778Z,2.83
2022-09-18T20:11:40.523Z,1.87
2022-09-18T20:14:07.215Z,2.63
2022-09-18T20:16:34.210Z,3.30
2022-09-18T20:19:01.754Z,2.97
2022-09-18T20:21:29.404Z,4.37
2022-09-18T20:23:58.107Z,3.17
2022-09-18T20:26:25.406Z,3.53
2022-09-18T20:28:52.257Z,3.63
2022-09-18T20:31:20.701Z,2.53
2022-09-18T20:33:47.429Z,2.60
2022-09-18T20:36:14.034Z,2.73
2022-09-18T20:38:41.932Z,3.90
2022-09-18T20:41:15.298Z,3.27
2022-09-18T20:43:42.829Z,1.67
2022-09-18T20:46:14.304Z,2.10
2022-09-18T20:48:43.182Z,2.03
2022-09-18T20:51:13.424Z,4.23
2022-09-18T20:53:41.878Z,3.10
2022-09-18T20:56:10.441Z,2.00
2022-09-18T20:58:39.345Z,2.47
2022-09-18T21:01:13.987Z,4.33
2022-09-18T21:03:42.702Z,2.87
2022-09-18T21:06:22.889Z,2.37
2022-09-18T21:08:55.438Z,4.00
2022-09-18T21:11:26.536Z,2.53
2022-09-18T21:13:55.881Z,3.73
2022-09-18T21:16:24.613Z,4.80
2022-09-18T21:18:53.589Z,3.70
2022-09-18T21:21:20.379Z,2.13
2022-09-18T21:24:02.607Z,2.73
2022-09-18T21:26:33.246Z,4.70
2022-09-18T21:29:12.295Z,1.37
2022-09-18T21:31:42.545Z,2.17
2022-09-18T21:34:16.105Z,6.40
2022-09-18T21:36:46.242Z,5.83
2022-09-18T21:39:14.404Z,4.87
2022-09-18T21:41:46.120Z,2.43
2022-09-18T21:44:15.546Z,3.43
2022-09-18T21:46:43.378Z,3.47
2022-09-18T21:49:10.259Z,4.33
2022-09-18T21:51:40.416Z,6.07
2022-09-18T21:54:08.723Z,7.70
2022-09-18T21:56:35.465Z,3.47
2022-09-18T21:59:02.202Z,5.20
2022-09-18T22:01:33.505Z,3.83
2022-09-18T22:04:02.315Z,5.17
2022-09-18T22:06:31.891Z,4.80
2022-09-18T22:08:59.943Z,7.83
2022-09-18T22:11:30.656Z,5.20
2022-09-18T22:13:58.922Z,5.93
2022-09-18T22:16:27.414Z,2.17
2022-09-18T22:18:54.283Z,3.97
2022-09-18T22:21:24.998Z,6.23
2022-09-18T22:23:53.459Z,7.07
2022-09-18T22:26:24.284Z,7.07
2022-09-18T22:28:55.148Z,5.93
2022-09-18T22:31:22.181Z,4.50
2022-09-18T22:33:50.598Z,5.07
2022-09-18T22:36:17.211Z,4.07
2022-09-18T22:38:43.929Z,4.63
2022-09-18T22:41:10.604Z,6.67
2022-09-18T22:43:37.552Z,7.43
2022-09-18T22:46:12.030Z,5.90
2022-09-18T22:48:39.166Z,4.97
2022-09-18T22:51:11.091Z,3.27
2022-09-18T22:53:41.080Z,6.10
2022-09-18T22:56:12.444Z,4.63
2022-09-18T22:58:41.419Z,3.90
2022-09-18T23:01:22.539Z,3.53
2022-09-18T23:03:51.066Z,6.73
2022-09-18T23:06:20.674Z,7.57
2022-09-18T23:08:49.207Z,5.77
2022-09-18T23:11:18.466Z,5.87
2022-09-18T23:13:52.169Z,7.87
2022-09-18T23:16:19.425Z,7.10
2022-09-18T23:18:51.001Z,6.07
2022-09-18T23:21:17.922Z,7.87
2022-09-18T23:23:45.366Z,7.40
2022-09-18T23:26:23.308Z,5.13
2022-09-18T23:28:52.269Z,8.10
2022-09-18T23:31:23.423Z,6.13
2022-09-18T23:33:52.186Z,9.30
2022-09-18T23:36:39.334Z,5.70
2022-09-18T23:39:14.564Z,5.57
2022-09-18T23:41:41.957Z,4.03
2022-09-18T23:44:12.029Z,6.60
2022-09-18T23:46:39.232Z,8.93
2022-09-18T23:49:07.390Z,4.67
2022-09-18T23:51:36.729Z,5.37
2022-09-18T23:54:05.100Z,8.93
2022-09-18T23:56:33.744Z,6.13
2022-09-18T23:59:03.096Z,4.20
